Flight Track Log - Related Links

Times and Time Zones

All times are in EDT time to prevent confusion due to time zone crossing. See the UAL495 flight status page for this flight to view local times or setup timezone preferences in your user account.

Time Position Orientation Groundspeed Altitude Reporting Facility
EDT Latitude Longitude Course Direction KTS MPH feet Rate Location/Type
Thu 12:37:50 PM 39.8667 -104.5667 107° East 206 237 6,900  Level Denver TRACON
Thu 12:38:13 PM 39.8606 -104.5422 108° East 216 249 7,500 1,765 Climbing Denver Center
Thu 12:39:00 PM 39.7102 -104.2138 113° Southeast  Level FlightAware Approximate
Thu 12:39:15 PM 39.8283 -104.4456 113° Southeast 271 312 9,400  Level Denver Center
Thu 12:40:00 PM 39.6687 -104.0601 105° East  Level FlightAware Approximate
Thu 12:40:17 PM 39.7900 -104.3381 115° Southeast 326 375 11,200  Level Denver Center
Thu 12:41:00 PM 39.6200 -103.9098 113° Southeast  Level FlightAware Approximate
Thu 12:41:19 PM 39.7475 -104.2119 114° Southeast 388 447 12,300  Level Denver Center
Thu 12:42:00 PM 39.5717 -103.7600 123° Southeast  Level FlightAware Approximate
Thu 12:42:20 PM 39.6956 -104.0636 114° Southeast 421 484 15,100  Level Denver Center
Thu 12:43:00 PM 39.5333 -103.6052 107° East  Level FlightAware Approximate
Thu 12:43:22 PM 39.6464 -103.9261 115° Southeast 423 487 17,200  Level Denver Center
Thu 12:44:24 PM 39.5897 -103.7869 118° Southeast 433 498 19,300 1,887 Climbing Denver Center
Thu 12:45:26 PM 39.5486 -103.6256 108° East 432 497 21,100 1,742 Climbing Denver Center
Thu 12:46:28 PM 39.5072 -103.4669 109° East 457 526 22,900 1,597 Climbing Denver Center
Thu 12:47:30 PM 39.4647 -103.3064 109° East 466 536 24,400 1,403 Climbing Denver Center
Thu 12:48:32 PM 39.4208 -103.1425 109° East 477 549 25,800 1,268 Climbing Denver Center
Thu 12:49:33 PM 39.3758 -102.9758 109° East 484 557 27,000 1,415 Climbing Denver Center
Thu 12:50:35 PM 39.3294 -102.8094 110° East 487 560 28,700 1,355 Climbing Denver Center
Thu 12:51:37 PM 39.2775 -102.6153 109° East 493 567 29,800 1,113 Climbing Denver Center
Thu 12:52:39 PM 39.2342 -102.4553 109° East 494 568 31,000 581 Climbing Denver Center
Thu 12:53:41 PM 39.1903 -102.2947 109° East 496 571 31,000  Level Denver Center
Thu 12:54:43 PM 39.1383 -102.1106 110° East 490 564 31,000  Level Denver Center
Thu 12:55:44 PM 39.0939 -101.9514 110° East 492 566 31,000  Level Denver Center
Thu 12:56:46 PM 39.0419 -101.7689 110° East 488 562 31,000  Level Denver Center
Thu 12:57:48 PM 38.9967 -101.6125 110° East 486 559 31,000  Level Denver Center
Thu 12:58:50 PM 38.9450 -101.4303 110° East 487 560 31,000  Level Denver Center
Thu 12:59:52 PM 38.8997 -101.2733 110° East 488 562 31,000  Level Denver Center
Thu 01:00:54 PM 38.8439 -101.0906 111° Southeast 491 565 31,000  Level Denver Center
Thu 01:01:56 PM 38.7972 -100.9328 111° Southeast 493 567 31,000  Level Denver Center
Thu 01:02:58 PM 38.7506 -100.7722 110° East 498 573 31,000  Level Denver Center
Thu 01:04:00 PM 38.6942 -100.5844 111° Southeast 505 581 31,000  Level Denver Center
Thu 01:05:02 PM 38.6458 -100.4256 111° Southeast 501 577 31,000  Level Denver Center
Thu 01:06:03 PM 38.5894 -100.2381 111° Southeast 503 579 31,000 195 Level Denver Center
Thu 01:07:05 PM 38.5411 -100.0778 111° Southeast 504 580 31,400 726 Climbing Denver Center
Thu 01:08:07 PM 38.4856 -99.8925 111° Southeast 500 575 32,500 811 Climbing Denver Center
Thu 01:08:56 PM 38.4439 -99.7611 112° Southeast 495 570 32,900 273 Climbing Kansas City Center
Thu 01:09:57 PM 38.3964 -99.6017 111° Southeast 499 574 33,000 48 Climbing Kansas City Center
Thu 01:11:00 PM 38.3411 -99.4272 112° Southeast 510 587 33,000  Level Kansas City Center
Thu 01:12:01 PM 38.2892 -99.2622 112° Southeast 506 582 33,000  Level Kansas City Center
Thu 01:13:01 PM 38.2353 -99.0975 113° Southeast 503 579 33,000  Level Kansas City Center
Thu 01:14:05 PM 38.1833 -98.9356 112° Southeast 498 573 33,000  Level Kansas City Center
Thu 01:15:05 PM 38.1333 -98.7711 111° Southeast 501 577 33,000  Level Kansas City Center
Thu 01:16:09 PM 38.0800 -98.6083 113° Southeast 501 577 33,000  Level Kansas City Center
Thu 01:17:09 PM 38.0292 -98.4453 112° Southeast 500 575 33,000  Level Kansas City Center
Thu 01:18:13 PM 37.9653 -98.2494 112° Southeast 501 577 33,000  Level Kansas City Center
Thu 01:19:13 PM 37.9094 -98.0786 112° Southeast 500 575 33,000  Level Kansas City Center
Thu 01:20:14 PM 37.8553 -97.9150 113° Southeast 502 578 33,000  Level Kansas City Center
Thu 01:21:17 PM 37.8000 -97.7514 113° Southeast 504 580 33,000  Level Kansas City Center
Thu 01:22:18 PM 37.7478 -97.5869 112° Southeast 503 579 33,000  Level Kansas City Center
Thu 01:23:19 PM 37.7314 -97.3872 96° East 533 613 33,000  Level Kansas City Center
Thu 01:24:23 PM 37.7183 -97.2061 95° East 535 616 33,000  Level Kansas City Center
Thu 01:25:24 PM 37.7044 -97.0192 95° East 534 615 33,000  Level Kansas City Center
Thu 01:26:26 PM 37.6894 -96.8333 96° East 534 615 33,000  Level Kansas City Center
Thu 01:27:26 PM 37.6744 -96.6442 96° East 540 621 33,000 49 Level Kansas City Center
Thu 01:28:29 PM 37.6569 -96.4439 96° East 545 627 33,100  Climbing Kansas City Center
Thu 01:29:31 PM 37.6422 -96.2536 96° East 544 626 33,000 -49 Descending Kansas City Center
Thu 01:30:32 PM 37.6225 -96.0278 96° East 539 620 33,000  Level Kansas City Center
Thu 01:31:35 PM 37.6058 -95.8406 96° East 537 618 33,000 194 Level Kansas City Center
Thu 01:32:36 PM 37.5889 -95.6531 96° East 536 617 33,400 443 Climbing Kansas City Center
Thu 01:33:37 PM 37.5717 -95.4686 97° East 531 611 33,900 480 Climbing Kansas City Center
Thu 01:34:41 PM 37.5544 -95.2819 97° East 531 611 34,400 484 Climbing Kansas City Center
Thu 01:35:41 PM 37.5369 -95.0939 97° East 534 615 34,900 298 Climbing Kansas City Center
Thu 01:36:42 PM 37.5192 -94.9053 97° East 538 619 35,000 48 Climbing Kansas City Center
Thu 01:37:45 PM 37.5008 -94.7214 97° East 531 611 35,000  Level Kansas City Center
Thu 01:38:47 PM 37.4825 -94.5394 97° East 525 604 35,000  Level Kansas City Center
Thu 01:39:48 PM 37.4606 -94.3228 97° East 519 597 35,000 197 Level Kansas City Center
Thu 01:40:49 PM 37.4428 -94.1436 97° East 516 594 35,400 780 Climbing Kansas City Center
Thu 01:41:51 PM 37.4239 -93.9592 97° East 510 587 36,600 768 Climbing Kansas City Center
Thu 01:42:54 PM 37.4050 -93.7878 98° East 501 577 37,000 194 Climbing Kansas City Center
Thu 01:43:55 PM 37.3872 -93.6200 98° East 489 563 37,000  Level Kansas City Center
Thu 01:44:56 PM 37.3692 -93.4500 98° East 489 563 37,000  Level Kansas City Center
Thu 01:46:00 PM 37.3619 -93.2772 93° East 491 565 37,000  Level Kansas City Center
Thu 01:47:00 PM 37.3811 -93.1039 82° East 498 573 37,000  Level Kansas City Center
Thu 01:48:02 PM 37.4014 -92.9311 82° East 500 575 37,000  Level Kansas City Center
Thu 01:49:03 PM 37.4208 -92.7564 82° East 503 579 37,000  Level Kansas City Center
Thu 01:50:07 PM 37.4433 -92.5439 82° East 508 585 37,000  Level Kansas City Center
Thu 01:51:07 PM 37.4633 -92.3658 82° East 512 589 37,000  Level Kansas City Center
Thu 01:52:09 PM 37.4814 -92.1881 83° East 514 592 37,000  Level Kansas City Center
Thu 01:53:12 PM 37.5006 -92.0136 82° East 512 589 37,000  Level Kansas City Center
Thu 01:54:13 PM 37.5183 -91.8392 83° East 508 585 37,000  Level Kansas City Center
Thu 01:55:14 PM 37.5358 -91.6672 83° East 503 579 37,000  Level Kansas City Center
Thu 01:56:17 PM 37.5558 -91.4603 83° East 499 574 37,000  Level Kansas City Center
Thu 01:57:18 PM 37.5744 -91.2853 82° East 500 575 37,000  Level Kansas City Center
Thu 01:58:19 PM 37.5911 -91.1097 83° East 503 579 37,000  Level Kansas City Center
Thu 01:59:23 PM 37.6078 -90.9339 83° East 504 580 37,000  Level Kansas City Center
Thu 02:00:25 PM 37.6253 -90.7600 83° East 507 583 37,000  Level Kansas City Center
Thu 02:01:28 PM 37.6417 -90.5819 83° East 512 589 37,000  Level Kansas City Center
Thu 02:02:30 PM 37.6603 -90.3711 84° East 509 586 37,000  Level Kansas City Center
Thu 02:03:31 PM 37.6767 -90.1944 83° East 509 586 37,000  Level Kansas City Center
Thu 02:04:32 PM 37.6961 -90.0172 82° East 511 588 37,000  Level Kansas City Center
Thu 02:05:33 PM 37.7169 -89.8400 81° East 513 590 37,000  Level Kansas City Center
Thu 02:06:34 PM 37.7372 -89.6617 82° East 515 593 37,000  Level Kansas City Center
Thu 02:07:38 PM 37.7553 -89.4811 83° East 517 595 37,000  Level Kansas City Center
Thu 02:08:39 PM 37.7775 -89.2686 82° East 518 596 37,000  Level Kansas City Center
Thu 02:09:40 PM 37.7961 -89.0889 82° East 515 593 37,000  Level Kansas City Center
Thu 02:10:43 PM 37.8133 -88.9108 83° East 513 590 37,000  Level Kansas City Center
Thu 02:11:43 PM 37.8283 -88.7347 84° East 509 586 37,000  Level Kansas City Center
Thu 02:12:46 PM 37.8511 -88.5664 80° East 500 575 37,000  Level Kansas City Center
Thu 02:13:49 PM 37.8717 -88.3531 83° East 507 583 37,000  Level Indianapolis Center
Thu 02:14:50 PM 37.8886 -88.1736 83° East 510 587 37,000  Level Indianapolis Center
Thu 02:15:49 PM 37.9058 -87.9917 83° East 517 595 37,000  Level Kansas City Center
Thu 02:16:50 PM 37.9239 -87.8083 83° East 522 601 37,000  Level Kansas City Center
Thu 02:17:55 PM 37.9397 -87.6250 84° East 524 603 37,000  Level Indianapolis Center
Thu 02:18:56 PM 37.9567 -87.4444 83° East 520 598 37,000  Level Indianapolis Center
Thu 02:19:58 PM 37.9725 -87.2644 84° East 517 595 37,000  Level Indianapolis Center
Thu 02:20:59 PM 37.9900 -87.0542 84° East 507 583 37,000  Level Indianapolis Center
Thu 02:22:01 PM 38.0044 -86.8833 84° East 495 570 37,000  Level Indianapolis Center
Thu 02:23:02 PM 38.0181 -86.7136 84° East 489 563 37,000  Level Indianapolis Center
Thu 02:24:04 PM 38.0311 -86.5425 84° East 489 563 37,000 98 Level Indianapolis Center
Thu 02:25:05 PM 38.0453 -86.3706 84° East 491 565 37,200  Climbing Indianapolis Center
Thu 02:26:07 PM 38.0578 -86.1953 85° East 497 572 37,000 -98 Descending Indianapolis Center
Thu 02:27:08 PM 38.0714 -86.0219 84° East 497 572 37,000  Level Indianapolis Center
Thu 02:28:10 PM 38.0875 -85.8114 84° East 498 573 37,000  Level Indianapolis Center
Thu 02:29:11 PM 38.1006 -85.6375 84° East 498 573 37,000  Level Indianapolis Center
Thu 02:30:13 PM 38.1131 -85.4650 85° East 491 565 37,000  Level Indianapolis Center
Thu 02:31:14 PM 38.1269 -85.2925 84° East 490 564 37,000  Level Indianapolis Center
Thu 02:32:16 PM 38.1403 -85.1228 84° East 485 558 37,000  Level Indianapolis Center
Thu 02:33:17 PM 38.1536 -84.9528 84° East 481 554 37,000  Level Indianapolis Center
Thu 02:34:19 PM 38.1675 -84.7833 84° East 482 555 37,000  Level Indianapolis Center
Thu 02:35:20 PM 38.1803 -84.6150 84° East 479 551 37,000  Level Indianapolis Center
Thu 02:36:22 PM 38.1933 -84.4206 85° East 475 547 37,000  Level Indianapolis Center
Thu 02:37:24 PM 38.2047 -84.2542 85° East 473 544 37,000  Level Indianapolis Center
Thu 02:38:25 PM 38.2169 -84.0856 85° East 474 545 37,000  Level Indianapolis Center
Thu 02:39:27 PM 38.2272 -83.9175 85° East 475 547 37,000  Level Indianapolis Center
Thu 02:40:28 PM 38.2397 -83.7511 84° East 471 542 37,000  Level Indianapolis Center
Thu 02:41:30 PM 38.2500 -83.5864 85° East 466 536 37,000  Level Indianapolis Center
Thu 02:42:31 PM 38.2792 -83.4278 77° East 463 533 37,000  Level Indianapolis Center
Thu 02:43:33 PM 38.3139 -83.2692 74° East 462 532 37,000  Level Indianapolis Center
Thu 02:44:35 PM 38.3531 -83.0839 75° East 463 533 37,000  Level Indianapolis Center
Thu 02:45:36 PM 38.3872 -82.9272 74° East 460 529 37,000  Level Indianapolis Center
Thu 02:46:38 PM 38.4208 -82.7681 75° East 461 531 37,000  Level Indianapolis Center
Thu 02:47:40 PM 38.4531 -82.6081 76° East 464 534 37,000  Level Indianapolis Center
Thu 02:48:41 PM 38.4881 -82.4394 75° East 461 531 37,000  Level Indianapolis Center
Thu 02:49:43 PM 38.5192 -82.2800 76° East 462 532 37,000  Level Indianapolis Center
Thu 02:50:45 PM 38.5186 -82.1164 90° East 468 539 37,000  Level Indianapolis Center
Thu 02:51:46 PM 38.4531 -81.9731 120° Southeast 473 544 37,000  Level Indianapolis Center
Thu 02:52:48 PM 38.3831 -81.8342 123° Southeast 472 543 37,000  Level Indianapolis Center
Thu 02:53:50 PM 38.3528 -81.6781 104° East 466 536 37,000  Level Indianapolis Center
Thu 02:54:51 PM 38.3461 -81.4847 92° East 462 532 37,000 -98 Level Indianapolis Center
Thu 02:55:53 PM 38.3392 -81.3236 93° East 460 529 36,800 -585 Descending Indianapolis Center
Thu 02:56:54 PM 38.3331 -81.1642 93° East 456 525 35,800 -989 Descending Indianapolis Center
Thu 02:57:24 PM 38.3303 -81.1000 93° East 461 531 35,300 -1,467 Descending Washington Center
Thu 02:58:24 PM 38.3239 -80.9197 93° East 460 529 33,600 -1,150 Descending Washington Center
Thu 02:59:24 PM 38.3164 -80.7578 93° East 460 529 33,000 -600 Descending Washington Center
Thu 03:00:24 PM 38.3086 -80.6011 94° East 460 529 32,400 -1,250 Descending Washington Center
Thu 03:01:24 PM 38.3067 -80.4419 91° East 455 524 30,500 -1,650 Descending Washington Center
Thu 03:02:24 PM 38.3339 -80.2850 77° East 450 518 29,100 -750 Descending Washington Center
Thu 03:03:24 PM 38.3664 -80.1467 73° East 450 518 29,000 -50 Descending Washington Center
Thu 03:04:24 PM 38.3992 -79.9922 75° East 450 518 29,000  Level Washington Center
Thu 03:05:24 PM 38.4339 -79.8381 74° East 450 518 29,000 -650 Level Washington Center
Thu 03:06:24 PM 38.4706 -79.6811 73° East 450 518 27,700 -1,800 Descending Washington Center
Thu 03:07:24 PM 38.5053 -79.5183 75° East 450 518 25,400 -1,900 Descending Washington Center
Thu 03:08:24 PM 38.5369 -79.3742 74° East 439 505 23,900 -1,700 Descending Washington Center
Thu 03:09:24 PM 38.5667 -79.2269 75° East 426 490 22,000 -1,850 Descending Washington Center
Thu 03:10:24 PM 38.5911 -79.1006 76° East 421 484 20,200 -1,800 Descending Washington Center
Thu 03:11:24 PM 38.6181 -78.9664 76° East 409 471 18,400 -1,800 Descending Washington Center
Thu 03:13:24 PM 38.6667 -78.7025 77° East 385 443 14,800 -1,800 Descending Washington Center
Thu 03:14:24 PM 38.6931 -78.5761 75° East 374 430 13,000 -1,750 Descending Washington Center
Thu 03:15:24 PM 38.7167 -78.4519 76° East 369 425 11,300 -1,200 Descending Washington Center
Thu 03:16:24 PM 38.7547 -78.3497 64° Northeast 343 395 10,600 -1,050 Descending Washington Center
Thu 03:17:24 PM 38.8189 -78.2719 43° Northeast 314 361 9,200 -1,450 Descending Washington Center
Thu 03:18:24 PM 38.8850 -78.1997 40° Northeast 309 356 7,700 -1,350 Descending Washington Center
Thu 03:19:24 PM 38.9492 -78.1247 42° Northeast 309 356 6,500 -900 Descending Washington Center
Thu 03:20:24 PM 39.0178 -78.0442 42° Northeast 304 350 5,900 -300 Descending Washington Center
Thu 03:21:24 PM 39.0403 -77.9486 73° East 281 323 5,900 50 Level Washington Center
Thu 03:22:24 PM 39.0086 -77.8675 117° Southeast 232 267 6,000 50 Climbing Washington Center
Thu 03:23:24 PM 38.9808 -77.7972 117° Southeast 219 252 6,000  Level Washington Center
Thu 03:25:32 PM 38.9500 -77.6333 104° East 236 272 6,000  Level Potomac TRACON
Thu 03:27:00 PM 38.9474 -77.4599 159° South  Level Estimated
Thu 03:27:33 PM 39.0833 -77.5833 159° South 264 304 6,000  Level Potomac TRACON
Thu 03:28:33 PM 39.1667 -77.5833 360° North 267 307 6,000 -450 Level Potomac TRACON
Thu 03:29:33 PM 39.2333 -77.5833 360° North 261 300 5,100 -496 Descending Potomac TRACON
Thu 03:30:34 PM 39.3167 -77.5667 North 268 308 5,000 -25 Descending Potomac TRACON
Thu 03:32:00 PM 39.1320 -77.5131 165° South  Level Estimated
Thu 03:33:35 PM 39.2333 -77.4500 165° South 161 185 5,000  Level Potomac TRACON
Thu 03:34:36 PM 39.1833 -77.4500 180° South 157 181 4,500 -645 Descending Potomac TRACON
Thu 03:35:36 PM 39.1500 -77.4500 180° South 158 182 3,700 -800 Descending Potomac TRACON

Login

Don't have an account? Register now (free) for customized features, flight alerts, and more!